sensor_id;sensor_type;location;lat;lon;timestamp;P1;durP1;ratioP1;P2;durP2;ratioP2
74108;SDS011;62466;47.566;7.786;2022-08-19T00:00:34;4.57;;;3.55;;
74108;SDS011;62466;47.566;7.786;2022-08-19T00:03:01;4.85;;;4.03;;
74108;SDS011;62466;47.566;7.786;2022-08-19T00:05:26;3.88;;;3.50;;
74108;SDS011;62466;47.566;7.786;2022-08-19T00:07:52;4.30;;;3.67;;
74108;SDS011;62466;47.566;7.786;2022-08-19T00:10:18;4.00;;;3.60;;
74108;SDS011;62466;47.566;7.786;2022-08-19T00:12:44;3.83;;;3.53;;
74108;SDS011;62466;47.566;7.786;2022-08-19T00:15:11;3.70;;;3.40;;
74108;SDS011;62466;47.566;7.786;2022-08-19T00:17:38;3.92;;;3.50;;
74108;SDS011;62466;47.566;7.786;2022-08-19T00:20:04;3.88;;;3.47;;
74108;SDS011;62466;47.566;7.786;2022-08-19T00:22:30;4.07;;;3.17;;
74108;SDS011;62466;47.566;7.786;2022-08-19T00:24:56;3.55;;;3.17;;
74108;SDS011;62466;47.566;7.786;2022-08-19T00:27:21;4.35;;;3.30;;
74108;SDS011;62466;47.566;7.786;2022-08-19T00:29:47;3.75;;;3.35;;
74108;SDS011;62466;47.566;7.786;2022-08-19T00:32:12;3.20;;;2.90;;
74108;SDS011;62466;47.566;7.786;2022-08-19T00:34:38;3.80;;;3.00;;
74108;SDS011;62466;47.566;7.786;2022-08-19T00:37:03;3.63;;;3.03;;
74108;SDS011;62466;47.566;7.786;2022-08-19T00:39:29;3.30;;;2.95;;
74108;SDS011;62466;47.566;7.786;2022-08-19T00:41:55;3.70;;;2.95;;
74108;SDS011;62466;47.566;7.786;2022-08-19T00:44:23;3.15;;;2.85;;
74108;SDS011;62466;47.566;7.786;2022-08-19T00:46:51;2.90;;;2.70;;
74108;SDS011;62466;47.566;7.786;2022-08-19T00:49:22;4.65;;;2.72;;
74108;SDS011;62466;47.566;7.786;2022-08-19T00:51:51;3.15;;;2.47;;
74108;SDS011;62466;47.566;7.786;2022-08-19T00:54:20;2.90;;;2.60;;
74108;SDS011;62466;47.566;7.786;2022-08-19T00:56:46;2.65;;;2.45;;
74108;SDS011;62466;47.566;7.786;2022-08-19T00:59:13;2.75;;;2.30;;
74108;SDS011;62466;47.566;7.786;2022-08-19T01:01:39;2.53;;;2.33;;
74108;SDS011;62466;47.566;7.786;2022-08-19T01:04:06;2.85;;;2.58;;
74108;SDS011;62466;47.566;7.786;2022-08-19T01:06:32;2.65;;;2.40;;
74108;SDS011;62466;47.566;7.786;2022-08-19T01:08:59;3.10;;;1.88;;
74108;SDS011;62466;47.566;7.786;2022-08-19T01:11:26;2.83;;;2.47;;
74108;SDS011;62466;47.566;7.786;2022-08-19T01:13:52;2.13;;;1.92;;
74108;SDS011;62466;47.566;7.786;2022-08-19T01:16:19;2.85;;;2.60;;
74108;SDS011;62466;47.566;7.786;2022-08-19T01:18:46;2.30;;;2.10;;
74108;SDS011;62466;47.566;7.786;2022-08-19T01:21:20;2.17;;;2.05;;
74108;SDS011;62466;47.566;7.786;2022-08-19T01:23:50;2.60;;;2.30;;
74108;SDS011;62466;47.566;7.786;2022-08-19T01:26:17;3.70;;;1.90;;
74108;SDS011;62466;47.566;7.786;2022-08-19T01:28:45;2.30;;;2.10;;
74108;SDS011;62466;47.566;7.786;2022-08-19T01:31:16;2.58;;;2.20;;
74108;SDS011;62466;47.566;7.786;2022-08-19T01:33:44;3.90;;;2.20;;
74108;SDS011;62466;47.566;7.786;2022-08-19T01:36:13;4.07;;;2.15;;
74108;SDS011;62466;47.566;7.786;2022-08-19T01:38:41;2.53;;;2.17;;
74108;SDS011;62466;47.566;7.786;2022-08-19T01:41:08;2.15;;;1.95;;
74108;SDS011;62466;47.566;7.786;2022-08-19T01:43:36;3.63;;;2.38;;
74108;SDS011;62466;47.566;7.786;2022-08-19T01:46:01;3.13;;;2.20;;
74108;SDS011;62466;47.566;7.786;2022-08-19T01:48:32;3.00;;;2.08;;
74108;SDS011;62466;47.566;7.786;2022-08-19T01:51:02;2.78;;;2.35;;
74108;SDS011;62466;47.566;7.786;2022-08-19T01:53:28;2.50;;;2.03;;
74108;SDS011;62466;47.566;7.786;2022-08-19T01:55:53;3.67;;;2.30;;
74108;SDS011;62466;47.566;7.786;2022-08-19T01:58:20;2.80;;;2.60;;
74108;SDS011;62466;47.566;7.786;2022-08-19T02:00:48;2.58;;;2.10;;
74108;SDS011;62466;47.566;7.786;2022-08-19T02:03:14;2.25;;;2.05;;
74108;SDS011;62466;47.566;7.786;2022-08-19T02:05:40;2.45;;;2.25;;
74108;SDS011;62466;47.566;7.786;2022-08-19T02:08:06;2.80;;;2.28;;
74108;SDS011;62466;47.566;7.786;2022-08-19T02:10:32;2.70;;;2.50;;
74108;SDS011;62466;47.566;7.786;2022-08-19T02:12:58;2.55;;;2.33;;
74108;SDS011;62466;47.566;7.786;2022-08-19T02:15:23;2.15;;;1.95;;
74108;SDS011;62466;47.566;7.786;2022-08-19T02:17:50;2.45;;;2.25;;
74108;SDS011;62466;47.566;7.786;2022-08-19T02:20:16;2.35;;;2.15;;
74108;SDS011;62466;47.566;7.786;2022-08-19T02:22:42;2.80;;;2.60;;
74108;SDS011;62466;47.566;7.786;2022-08-19T02:25:09;2.20;;;2.00;;
74108;SDS011;62466;47.566;7.786;2022-08-19T02:27:35;2.40;;;2.20;;
74108;SDS011;62466;47.566;7.786;2022-08-19T02:30:03;2.28;;;2.10;;
74108;SDS011;62466;47.566;7.786;2022-08-19T02:32:30;3.03;;;2.38;;
74108;SDS011;62466;47.566;7.786;2022-08-19T02:34:55;2.88;;;2.58;;
74108;SDS011;62466;47.566;7.786;2022-08-19T02:37:21;2.83;;;2.50;;
74108;SDS011;62466;47.566;7.786;2022-08-19T02:40:05;2.90;;;2.53;;
74108;SDS011;62466;47.566;7.786;2022-08-19T02:42:32;3.30;;;2.08;;
74108;SDS011;62466;47.566;7.786;2022-08-19T02:44:57;2.67;;;2.47;;
74108;SDS011;62466;47.566;7.786;2022-08-19T02:47:22;4.05;;;2.63;;
74108;SDS011;62466;47.566;7.786;2022-08-19T02:49:48;3.08;;;2.78;;
74108;SDS011;62466;47.566;7.786;2022-08-19T02:52:15;3.22;;;2.80;;
74108;SDS011;62466;47.566;7.786;2022-08-19T02:54:41;2.38;;;2.17;;
74108;SDS011;62466;47.566;7.786;2022-08-19T02:57:07;2.85;;;2.58;;
74108;SDS011;62466;47.566;7.786;2022-08-19T02:59:33;3.20;;;2.58;;
74108;SDS011;62466;47.566;7.786;2022-08-19T03:01:58;2.85;;;2.65;;
74108;SDS011;62466;47.566;7.786;2022-08-19T03:04:24;2.83;;;2.40;;
74108;SDS011;62466;47.566;7.786;2022-08-19T03:06:49;3.35;;;3.05;;
74108;SDS011;62466;47.566;7.786;2022-08-19T03:09:16;2.85;;;2.65;;
74108;SDS011;62466;47.566;7.786;2022-08-19T03:11:42;2.67;;;2.38;;
74108;SDS011;62466;47.566;7.786;2022-08-19T03:14:08;4.43;;;2.63;;
74108;SDS011;62466;47.566;7.786;2022-08-19T03:16:42;3.25;;;2.80;;
74108;SDS011;62466;47.566;7.786;2022-08-19T03:19:09;3.10;;;2.83;;
74108;SDS011;62466;47.566;7.786;2022-08-19T03:21:34;3.58;;;2.80;;
74108;SDS011;62466;47.566;7.786;2022-08-19T03:24:02;3.38;;;2.85;;
74108;SDS011;62466;47.566;7.786;2022-08-19T03:26:30;3.42;;;3.13;;
74108;SDS011;62466;47.566;7.786;2022-08-19T03:28:56;3.38;;;3.00;;
74108;SDS011;62466;47.566;7.786;2022-08-19T03:31:26;2.92;;;2.63;;
74108;SDS011;62466;47.566;7.786;2022-08-19T03:33:52;7.45;;;3.17;;
74108;SDS011;62466;47.566;7.786;2022-08-19T03:36:18;4.65;;;2.67;;
74108;SDS011;62466;47.566;7.786;2022-08-19T03:38:48;3.10;;;2.72;;
74108;SDS011;62466;47.566;7.786;2022-08-19T03:41:17;6.50;;;3.20;;
74108;SDS011;62466;47.566;7.786;2022-08-19T03:43:44;2.92;;;2.72;;
74108;SDS011;62466;47.566;7.786;2022-08-19T03:46:19;3.38;;;2.55;;
74108;SDS011;62466;47.566;7.786;2022-08-19T03:48:47;3.13;;;2.83;;
74108;SDS011;62466;47.566;7.786;2022-08-19T03:51:17;3.45;;;2.90;;
74108;SDS011;62466;47.566;7.786;2022-08-19T03:53:45;3.33;;;2.65;;
74108;SDS011;62466;47.566;7.786;2022-08-19T03:56:11;3.60;;;2.67;;
74108;SDS011;62466;47.566;7.786;2022-08-19T03:58:38;2.83;;;2.53;;
74108;SDS011;62466;47.566;7.786;2022-08-19T04:01:08;2.70;;;2.50;;
74108;SDS011;62466;47.566;7.786;2022-08-19T04:03:36;4.18;;;2.70;;
74108;SDS011;62466;47.566;7.786;2022-08-19T04:06:12;4.40;;;2.92;;
74108;SDS011;62466;47.566;7.786;2022-08-19T04:08:40;3.70;;;3.00;;
74108;SDS011;62466;47.566;7.786;2022-08-19T04:11:11;2.88;;;2.58;;
74108;SDS011;62466;47.566;7.786;2022-08-19T04:16:04;3.33;;;2.92;;
74108;SDS011;62466;47.566;7.786;2022-08-19T04:18:30;3.92;;;2.58;;
74108;SDS011;62466;47.566;7.786;2022-08-19T04:20:57;3.30;;;2.78;;
74108;SDS011;62466;47.566;7.786;2022-08-19T04:23:24;3.50;;;3.20;;
74108;SDS011;62466;47.566;7.786;2022-08-19T04:25:49;3.03;;;2.72;;
74108;SDS011;62466;47.566;7.786;2022-08-19T04:28:15;3.22;;;2.90;;
74108;SDS011;62466;47.566;7.786;2022-08-19T04:30:48;4.28;;;3.05;;
74108;SDS011;62466;47.566;7.786;2022-08-19T04:33:16;4.10;;;3.10;;
74108;SDS011;62466;47.566;7.786;2022-08-19T04:35:45;3.38;;;2.80;;
74108;SDS011;62466;47.566;7.786;2022-08-19T04:38:12;3.65;;;3.35;;
74108;SDS011;62466;47.566;7.786;2022-08-19T04:40:45;3.33;;;3.03;;
74108;SDS011;62466;47.566;7.786;2022-08-19T04:43:31;3.05;;;2.75;;
74108;SDS011;62466;47.566;7.786;2022-08-19T04:45:57;5.13;;;3.15;;
74108;SDS011;62466;47.566;7.786;2022-08-19T04:48:23;8.25;;;3.40;;
74108;SDS011;62466;47.566;7.786;2022-08-19T04:50:52;5.68;;;3.78;;
74108;SDS011;62466;47.566;7.786;2022-08-19T04:53:23;4.90;;;3.70;;
74108;SDS011;62466;47.566;7.786;2022-08-19T04:55:50;4.32;;;3.03;;
74108;SDS011;62466;47.566;7.786;2022-08-19T04:58:16;5.90;;;3.33;;
74108;SDS011;62466;47.566;7.786;2022-08-19T05:00:42;8.18;;;3.58;;
74108;SDS011;62466;47.566;7.786;2022-08-19T05:03:08;4.85;;;3.22;;
74108;SDS011;62466;47.566;7.786;2022-08-19T05:05:37;3.55;;;2.95;;
74108;SDS011;62466;47.566;7.786;2022-08-19T05:08:04;3.40;;;3.10;;
74108;SDS011;62466;47.566;7.786;2022-08-19T05:10:31;4.25;;;3.38;;
74108;SDS011;62466;47.566;7.786;2022-08-19T05:12:56;3.60;;;2.80;;
74108;SDS011;62466;47.566;7.786;2022-08-19T05:15:22;3.33;;;2.75;;
74108;SDS011;62466;47.566;7.786;2022-08-19T05:17:48;3.97;;;3.10;;
74108;SDS011;62466;47.566;7.786;2022-08-19T05:20:32;3.85;;;2.92;;
74108;SDS011;62466;47.566;7.786;2022-08-19T05:23:16;4.15;;;3.17;;
74108;SDS011;62466;47.566;7.786;2022-08-19T05:25:41;3.15;;;2.95;;
74108;SDS011;62466;47.566;7.786;2022-08-19T05:28:07;3.20;;;2.90;;
74108;SDS011;62466;47.566;7.786;2022-08-19T05:30:32;5.50;;;2.95;;
74108;SDS011;62466;47.566;7.786;2022-08-19T05:32:59;3.80;;;3.00;;
74108;SDS011;62466;47.566;7.786;2022-08-19T05:35:24;3.83;;;3.08;;
74108;SDS011;62466;47.566;7.786;2022-08-19T05:37:50;3.10;;;2.85;;
74108;SDS011;62466;47.566;7.786;2022-08-19T05:40:15;4.03;;;3.05;;
74108;SDS011;62466;47.566;7.786;2022-08-19T05:42:41;3.85;;;2.90;;
74108;SDS011;62466;47.566;7.786;2022-08-19T05:45:07;3.13;;;2.58;;
74108;SDS011;62466;47.566;7.786;2022-08-19T05:47:33;5.05;;;2.60;;
74108;SDS011;62466;47.566;7.786;2022-08-19T05:50:00;3.05;;;2.80;;
74108;SDS011;62466;47.566;7.786;2022-08-19T05:52:27;3.15;;;2.65;;
74108;SDS011;62466;47.566;7.786;2022-08-19T05:54:53;3.03;;;2.72;;
74108;SDS011;62466;47.566;7.786;2022-08-19T05:57:20;2.58;;;2.38;;
74108;SDS011;62466;47.566;7.786;2022-08-19T05:59:46;5.50;;;2.97;;
74108;SDS011;62466;47.566;7.786;2022-08-19T06:02:13;2.85;;;2.53;;
74108;SDS011;62466;47.566;7.786;2022-08-19T06:04:39;3.10;;;2.40;;
74108;SDS011;62466;47.566;7.786;2022-08-19T06:07:07;16.50;;;3.38;;
74108;SDS011;62466;47.566;7.786;2022-08-19T06:09:33;7.68;;;3.00;;
74108;SDS011;62466;47.566;7.786;2022-08-19T06:11:59;9.23;;;3.15;;
74108;SDS011;62466;47.566;7.786;2022-08-19T06:14:27;10.57;;;3.60;;
74108;SDS011;62466;47.566;7.786;2022-08-19T06:16:53;13.18;;;3.70;;
74108;SDS011;62466;47.566;7.786;2022-08-19T06:19:20;6.97;;;3.03;;
74108;SDS011;62466;47.566;7.786;2022-08-19T06:21:47;5.10;;;3.47;;
74108;SDS011;62466;47.566;7.786;2022-08-19T06:24:16;3.17;;;2.88;;
74108;SDS011;62466;47.566;7.786;2022-08-19T06:26:44;4.68;;;3.03;;
74108;SDS011;62466;47.566;7.786;2022-08-19T06:29:11;4.43;;;3.10;;
74108;SDS011;62466;47.566;7.786;2022-08-19T06:31:40;5.10;;;2.90;;
74108;SDS011;62466;47.566;7.786;2022-08-19T06:34:08;5.40;;;3.40;;
74108;SDS011;62466;47.566;7.786;2022-08-19T06:36:41;5.03;;;2.70;;
74108;SDS011;62466;47.566;7.786;2022-08-19T06:39:10;4.28;;;3.05;;
74108;SDS011;62466;47.566;7.786;2022-08-19T06:41:39;4.30;;;3.05;;
74108;SDS011;62466;47.566;7.786;2022-08-19T06:44:12;6.60;;;3.20;;
74108;SDS011;62466;47.566;7.786;2022-08-19T06:46:38;3.05;;;2.72;;
74108;SDS011;62466;47.566;7.786;2022-08-19T06:49:05;4.78;;;2.78;;
74108;SDS011;62466;47.566;7.786;2022-08-19T06:51:34;3.80;;;2.85;;
74108;SDS011;62466;47.566;7.786;2022-08-19T06:54:00;3.45;;;3.05;;
74108;SDS011;62466;47.566;7.786;2022-08-19T06:56:28;4.28;;;3.30;;
74108;SDS011;62466;47.566;7.786;2022-08-19T07:01:25;4.80;;;3.17;;
74108;SDS011;62466;47.566;7.786;2022-08-19T07:03:50;3.42;;;3.13;;
74108;SDS011;62466;47.566;7.786;2022-08-19T07:06:17;5.63;;;3.53;;
74108;SDS011;62466;47.566;7.786;2022-08-19T07:08:45;6.60;;;3.30;;
74108;SDS011;62466;47.566;7.786;2022-08-19T07:11:12;5.00;;;3.50;;
74108;SDS011;62466;47.566;7.786;2022-08-19T07:13:39;4.25;;;3.25;;
74108;SDS011;62466;47.566;7.786;2022-08-19T07:16:09;11.00;;;3.92;;
74108;SDS011;62466;47.566;7.786;2022-08-19T07:18:37;6.38;;;3.75;;
74108;SDS011;62466;47.566;7.786;2022-08-19T07:21:04;7.07;;;3.58;;
74108;SDS011;62466;47.566;7.786;2022-08-19T07:23:31;7.20;;;3.72;;
74108;SDS011;62466;47.566;7.786;2022-08-19T07:25:57;6.05;;;3.88;;
74108;SDS011;62466;47.566;7.786;2022-08-19T07:28:23;4.75;;;3.78;;
74108;SDS011;62466;47.566;7.786;2022-08-19T07:30:49;6.47;;;3.40;;
74108;SDS011;62466;47.566;7.786;2022-08-19T07:33:15;8.52;;;3.50;;
74108;SDS011;62466;47.566;7.786;2022-08-19T07:35:41;5.78;;;4.43;;
74108;SDS011;62466;47.566;7.786;2022-08-19T07:38:07;5.53;;;3.90;;
74108;SDS011;62466;47.566;7.786;2022-08-19T07:40:32;9.45;;;4.43;;
74108;SDS011;62466;47.566;7.786;2022-08-19T07:42:58;9.85;;;4.28;;
74108;SDS011;62466;47.566;7.786;2022-08-19T07:45:24;9.48;;;4.63;;
74108;SDS011;62466;47.566;7.786;2022-08-19T07:47:50;13.90;;;5.22;;
74108;SDS011;62466;47.566;7.786;2022-08-19T07:50:18;9.10;;;5.18;;
74108;SDS011;62466;47.566;7.786;2022-08-19T07:52:44;7.57;;;4.20;;
74108;SDS011;62466;47.566;7.786;2022-08-19T07:55:10;6.15;;;4.20;;
74108;SDS011;62466;47.566;7.786;2022-08-19T07:57:36;6.78;;;4.07;;
74108;SDS011;62466;47.566;7.786;2022-08-19T08:00:03;6.82;;;4.65;;
74108;SDS011;62466;47.566;7.786;2022-08-19T08:02:37;4.95;;;3.90;;
74108;SDS011;62466;47.566;7.786;2022-08-19T08:05:04;5.18;;;4.20;;
74108;SDS011;62466;47.566;7.786;2022-08-19T08:07:48;7.55;;;4.05;;
74108;SDS011;62466;47.566;7.786;2022-08-19T08:10:32;7.57;;;4.03;;
74108;SDS011;62466;47.566;7.786;2022-08-19T08:12:58;5.20;;;4.05;;
74108;SDS011;62466;47.566;7.786;2022-08-19T08:15:24;8.07;;;4.03;;
74108;SDS011;62466;47.566;7.786;2022-08-19T08:17:49;12.70;;;4.53;;
74108;SDS011;62466;47.566;7.786;2022-08-19T08:20:15;6.50;;;4.45;;
74108;SDS011;62466;47.566;7.786;2022-08-19T08:22:44;10.65;;;5.22;;
74108;SDS011;62466;47.566;7.786;2022-08-19T08:25:29;9.10;;;4.30;;
74108;SDS011;62466;47.566;7.786;2022-08-19T08:27:56;7.80;;;4.93;;
74108;SDS011;62466;47.566;7.786;2022-08-19T08:30:25;5.93;;;4.60;;
74108;SDS011;62466;47.566;7.786;2022-08-19T08:32:52;6.30;;;5.15;;
74108;SDS011;62466;47.566;7.786;2022-08-19T08:35:18;6.13;;;4.50;;
74108;SDS011;62466;47.566;7.786;2022-08-19T08:37:46;4.88;;;3.97;;
74108;SDS011;62466;47.566;7.786;2022-08-19T08:40:18;4.68;;;4.28;;
74108;SDS011;62466;47.566;7.786;2022-08-19T08:42:53;5.60;;;4.13;;
74108;SDS011;62466;47.566;7.786;2022-08-19T08:45:23;4.85;;;4.43;;
74108;SDS011;62466;47.566;7.786;2022-08-19T08:47:50;6.07;;;4.47;;
74108;SDS011;62466;47.566;7.786;2022-08-19T08:50:25;5.43;;;4.40;;
74108;SDS011;62466;47.566;7.786;2022-08-19T08:52:55;7.13;;;4.93;;
74108;SDS011;62466;47.566;7.786;2022-08-19T08:55:23;5.43;;;4.15;;
74108;SDS011;62466;47.566;7.786;2022-08-19T08:57:53;5.45;;;4.95;;
74108;SDS011;62466;47.566;7.786;2022-08-19T09:00:24;5.35;;;4.85;;
74108;SDS011;62466;47.566;7.786;2022-08-19T09:02:54;5.80;;;5.07;;
74108;SDS011;62466;47.566;7.786;2022-08-19T09:05:22;6.53;;;4.80;;
74108;SDS011;62466;47.566;7.786;2022-08-19T09:07:55;6.32;;;5.57;;
74108;SDS011;62466;47.566;7.786;2022-08-19T09:13:32;7.97;;;5.60;;
74108;SDS011;62466;47.566;7.786;2022-08-19T09:16:15;7.63;;;5.32;;
74108;SDS011;62466;47.566;7.786;2022-08-19T09:18:44;8.02;;;5.38;;
74108;SDS011;62466;47.566;7.786;2022-08-19T09:21:12;6.15;;;5.55;;
74108;SDS011;62466;47.566;7.786;2022-08-19T09:23:38;6.25;;;5.65;;
74108;SDS011;62466;47.566;7.786;2022-08-19T09:26:12;7.78;;;6.03;;
74108;SDS011;62466;47.566;7.786;2022-08-19T09:28:39;7.60;;;5.88;;
74108;SDS011;62466;47.566;7.786;2022-08-19T09:31:10;7.75;;;6.00;;
74108;SDS011;62466;47.566;7.786;2022-08-19T09:33:37;6.63;;;5.85;;
74108;SDS011;62466;47.566;7.786;2022-08-19T09:36:06;7.95;;;6.10;;
74108;SDS011;62466;47.566;7.786;2022-08-19T09:38:33;11.15;;;6.53;;
74108;SDS011;62466;47.566;7.786;2022-08-19T09:41:03;9.30;;;6.43;;
74108;SDS011;62466;47.566;7.786;2022-08-19T09:43:30;7.65;;;6.85;;
74108;SDS011;62466;47.566;7.786;2022-08-19T09:45:56;8.10;;;6.93;;
74108;SDS011;62466;47.566;7.786;2022-08-19T09:48:22;7.85;;;6.25;;
74108;SDS011;62466;47.566;7.786;2022-08-19T09:50:47;8.82;;;6.35;;
74108;SDS011;62466;47.566;7.786;2022-08-19T09:53:13;8.52;;;6.22;;
74108;SDS011;62466;47.566;7.786;2022-08-19T09:55:42;8.30;;;6.50;;
74108;SDS011;62466;47.566;7.786;2022-08-19T09:58:08;9.75;;;7.32;;
74108;SDS011;62466;47.566;7.786;2022-08-19T10:00:34;8.85;;;7.03;;
74108;SDS011;62466;47.566;7.786;2022-08-19T10:02:59;7.95;;;6.85;;
74108;SDS011;62466;47.566;7.786;2022-08-19T10:05:25;7.90;;;7.03;;
74108;SDS011;62466;47.566;7.786;2022-08-19T10:08:09;7.47;;;6.38;;
74108;SDS011;62466;47.566;7.786;2022-08-19T10:10:36;9.88;;;6.88;;
74108;SDS011;62466;47.566;7.786;2022-08-19T10:13:02;12.25;;;7.55;;
74108;SDS011;62466;47.566;7.786;2022-08-19T10:15:27;9.10;;;7.07;;
74108;SDS011;62466;47.566;7.786;2022-08-19T10:17:53;8.65;;;6.88;;
74108;SDS011;62466;47.566;7.786;2022-08-19T10:20:19;7.80;;;6.68;;
74108;SDS011;62466;47.566;7.786;2022-08-19T10:22:44;8.50;;;6.93;;
74108;SDS011;62466;47.566;7.786;2022-08-19T10:25:10;10.02;;;7.55;;
74108;SDS011;62466;47.566;7.786;2022-08-19T10:27:36;9.85;;;7.40;;
74108;SDS011;62466;47.566;7.786;2022-08-19T10:30:02;9.50;;;7.20;;
74108;SDS011;62466;47.566;7.786;2022-08-19T10:32:28;9.98;;;7.40;;
74108;SDS011;62466;47.566;7.786;2022-08-19T10:34:54;12.00;;;9.60;;
74108;SDS011;62466;47.566;7.786;2022-08-19T10:37:21;11.68;;;8.60;;
74108;SDS011;62466;47.566;7.786;2022-08-19T10:39:46;11.80;;;7.68;;
74108;SDS011;62466;47.566;7.786;2022-08-19T10:42:15;9.00;;;7.60;;
74108;SDS011;62466;47.566;7.786;2022-08-19T10:44:42;9.75;;;7.43;;
74108;SDS011;62466;47.566;7.786;2022-08-19T10:47:07;8.40;;;7.28;;
74108;SDS011;62466;47.566;7.786;2022-08-19T10:49:33;10.40;;;7.78;;
74108;SDS011;62466;47.566;7.786;2022-08-19T10:52:18;10.10;;;8.32;;
74108;SDS011;62466;47.566;7.786;2022-08-19T10:55:03;9.80;;;7.45;;
74108;SDS011;62466;47.566;7.786;2022-08-19T10:57:48;10.40;;;8.23;;
74108;SDS011;62466;47.566;7.786;2022-08-19T11:00:13;11.45;;;8.73;;
74108;SDS011;62466;47.566;7.786;2022-08-19T11:02:39;8.23;;;7.38;;
74108;SDS011;62466;47.566;7.786;2022-08-19T11:05:06;9.48;;;7.93;;
74108;SDS011;62466;47.566;7.786;2022-08-19T11:07:34;11.35;;;8.27;;
74108;SDS011;62466;47.566;7.786;2022-08-19T11:10:01;9.73;;;8.05;;
74108;SDS011;62466;47.566;7.786;2022-08-19T11:12:28;10.88;;;8.27;;
74108;SDS011;62466;47.566;7.786;2022-08-19T11:14:53;10.80;;;8.55;;
74108;SDS011;62466;47.566;7.786;2022-08-19T11:17:19;10.90;;;8.65;;
74108;SDS011;62466;47.566;7.786;2022-08-19T11:19:45;12.63;;;9.65;;
74108;SDS011;62466;47.566;7.786;2022-08-19T11:22:13;14.70;;;8.90;;
74108;SDS011;62466;47.566;7.786;2022-08-19T11:24:45;13.23;;;8.43;;
74108;SDS011;62466;47.566;7.786;2022-08-19T11:27:10;12.15;;;9.30;;
74108;SDS011;62466;47.566;7.786;2022-08-19T11:29:39;14.85;;;9.55;;
74108;SDS011;62466;47.566;7.786;2022-08-19T11:32:08;14.32;;;9.93;;
74108;SDS011;62466;47.566;7.786;2022-08-19T11:34:35;17.48;;;9.77;;
74108;SDS011;62466;47.566;7.786;2022-08-19T11:37:01;12.13;;;8.98;;
74108;SDS011;62466;47.566;7.786;2022-08-19T11:39:28;11.95;;;8.63;;
74108;SDS011;62466;47.566;7.786;2022-08-19T11:41:55;12.40;;;9.35;;
74108;SDS011;62466;47.566;7.786;2022-08-19T11:44:23;12.57;;;9.13;;
74108;SDS011;62466;47.566;7.786;2022-08-19T11:46:49;11.13;;;8.73;;
74108;SDS011;62466;47.566;7.786;2022-08-19T11:49:15;13.27;;;8.75;;
74108;SDS011;62466;47.566;7.786;2022-08-19T11:51:43;10.38;;;8.63;;
74108;SDS011;62466;47.566;7.786;2022-08-19T11:54:11;12.07;;;8.95;;
74108;SDS011;62466;47.566;7.786;2022-08-19T11:56:38;13.68;;;8.82;;
74108;SDS011;62466;47.566;7.786;2022-08-19T11:59:04;13.32;;;9.70;;
74108;SDS011;62466;47.566;7.786;2022-08-19T12:01:30;13.82;;;9.82;;
74108;SDS011;62466;47.566;7.786;2022-08-19T12:03:56;11.57;;;8.90;;
74108;SDS011;62466;47.566;7.786;2022-08-19T12:06:27;12.90;;;8.77;;
74108;SDS011;62466;47.566;7.786;2022-08-19T12:08:55;10.43;;;8.57;;
74108;SDS011;62466;47.566;7.786;2022-08-19T12:11:21;12.25;;;9.35;;
74108;SDS011;62466;47.566;7.786;2022-08-19T12:13:47;11.38;;;9.27;;
74108;SDS011;62466;47.566;7.786;2022-08-19T12:22:51;15.25;;;11.48;;
74108;SDS011;62466;47.566;7.786;2022-08-19T12:25:17;13.35;;;10.40;;
74108;SDS011;62466;47.566;7.786;2022-08-19T12:27:42;11.93;;;9.77;;
74108;SDS011;62466;47.566;7.786;2022-08-19T12:30:12;11.45;;;9.55;;
74108;SDS011;62466;47.566;7.786;2022-08-19T12:32:38;16.58;;;11.52;;
74108;SDS011;62466;47.566;7.786;2022-08-19T12:35:04;15.05;;;11.48;;
74108;SDS011;62466;47.566;7.786;2022-08-19T12:37:31;12.10;;;9.95;;
74108;SDS011;62466;47.566;7.786;2022-08-19T12:39:57;15.13;;;10.85;;
74108;SDS011;62466;47.566;7.786;2022-08-19T12:42:22;15.40;;;11.00;;
74108;SDS011;62466;47.566;7.786;2022-08-19T12:44:48;15.05;;;11.63;;
74108;SDS011;62466;47.566;7.786;2022-08-19T12:47:13;17.45;;;13.45;;
74108;SDS011;62466;47.566;7.786;2022-08-19T12:49:39;17.80;;;12.40;;
74108;SDS011;62466;47.566;7.786;2022-08-19T12:52:06;16.27;;;12.23;;
74108;SDS011;62466;47.566;7.786;2022-08-19T12:54:33;13.68;;;10.68;;
74108;SDS011;62466;47.566;7.786;2022-08-19T12:57:00;14.10;;;11.00;;
74108;SDS011;62466;47.566;7.786;2022-08-19T12:59:26;15.95;;;12.27;;
74108;SDS011;62466;47.566;7.786;2022-08-19T13:01:52;16.38;;;12.43;;
74108;SDS011;62466;47.566;7.786;2022-08-19T13:04:18;13.68;;;11.25;;
74108;SDS011;62466;47.566;7.786;2022-08-19T13:06:43;14.98;;;11.73;;
74108;SDS011;62466;47.566;7.786;2022-08-19T13:09:09;19.15;;;13.18;;
74108;SDS011;62466;47.566;7.786;2022-08-19T13:11:35;16.48;;;13.07;;
74108;SDS011;62466;47.566;7.786;2022-08-19T13:14:02;13.30;;;11.55;;
74108;SDS011;62466;47.566;7.786;2022-08-19T13:16:28;15.35;;;11.07;;
74108;SDS011;62466;47.566;7.786;2022-08-19T13:18:54;14.50;;;11.93;;
74108;SDS011;62466;47.566;7.786;2022-08-19T13:21:22;13.63;;;11.38;;
74108;SDS011;62466;47.566;7.786;2022-08-19T13:23:49;15.90;;;11.85;;
74108;SDS011;62466;47.566;7.786;2022-08-19T13:26:15;15.38;;;11.75;;
74108;SDS011;62466;47.566;7.786;2022-08-19T13:28:41;15.68;;;11.35;;
74108;SDS011;62466;47.566;7.786;2022-08-19T13:31:26;14.82;;;11.45;;
74108;SDS011;62466;47.566;7.786;2022-08-19T13:34:12;13.18;;;10.63;;
74108;SDS011;62466;47.566;7.786;2022-08-19T13:36:38;12.88;;;10.73;;
74108;SDS011;62466;47.566;7.786;2022-08-19T13:39:04;15.80;;;11.18;;
74108;SDS011;62466;47.566;7.786;2022-08-19T13:41:30;14.13;;;12.25;;
74108;SDS011;62466;47.566;7.786;2022-08-19T13:43:56;16.58;;;12.25;;
74108;SDS011;62466;47.566;7.786;2022-08-19T13:46:21;16.75;;;12.52;;
74108;SDS011;62466;47.566;7.786;2022-08-19T13:48:47;18.83;;;14.23;;
74108;SDS011;62466;47.566;7.786;2022-08-19T13:51:14;15.23;;;12.48;;
74108;SDS011;62466;47.566;7.786;2022-08-19T13:53:41;16.90;;;11.90;;
74108;SDS011;62466;47.566;7.786;2022-08-19T13:56:08;17.08;;;12.77;;
74108;SDS011;62466;47.566;7.786;2022-08-19T13:58:36;17.60;;;13.07;;
74108;SDS011;62466;47.566;7.786;2022-08-19T14:01:02;15.55;;;12.10;;
74108;SDS011;62466;47.566;7.786;2022-08-19T14:03:28;15.60;;;12.13;;
74108;SDS011;62466;47.566;7.786;2022-08-19T14:05:54;16.30;;;12.23;;
74108;SDS011;62466;47.566;7.786;2022-08-19T14:08:20;18.27;;;12.90;;
74108;SDS011;62466;47.566;7.786;2022-08-19T14:10:45;17.27;;;12.98;;
74108;SDS011;62466;47.566;7.786;2022-08-19T14:13:13;16.70;;;12.23;;
74108;SDS011;62466;47.566;7.786;2022-08-19T14:15:45;14.13;;;12.07;;
74108;SDS011;62466;47.566;7.786;2022-08-19T14:18:10;12.45;;;10.50;;
74108;SDS011;62466;47.566;7.786;2022-08-19T14:20:36;13.85;;;10.13;;
74108;SDS011;62466;47.566;7.786;2022-08-19T14:23:02;19.95;;;12.57;;
74108;SDS011;62466;47.566;7.786;2022-08-19T14:25:28;13.02;;;10.25;;
74108;SDS011;62466;47.566;7.786;2022-08-19T14:27:55;14.88;;;11.32;;
74108;SDS011;62466;47.566;7.786;2022-08-19T14:30:25;16.23;;;11.45;;
74108;SDS011;62466;47.566;7.786;2022-08-19T14:32:52;17.45;;;11.15;;
74108;SDS011;62466;47.566;7.786;2022-08-19T14:35:19;16.30;;;11.55;;
74108;SDS011;62466;47.566;7.786;2022-08-19T14:37:46;17.02;;;11.98;;
74108;SDS011;62466;47.566;7.786;2022-08-19T14:40:15;14.27;;;10.60;;
74108;SDS011;62466;47.566;7.786;2022-08-19T14:42:43;11.75;;;9.98;;
74108;SDS011;62466;47.566;7.786;2022-08-19T14:45:09;13.82;;;9.85;;
74108;SDS011;62466;47.566;7.786;2022-08-19T14:47:36;15.60;;;9.75;;
74108;SDS011;62466;47.566;7.786;2022-08-19T14:50:04;15.25;;;10.07;;
74108;SDS011;62466;47.566;7.786;2022-08-19T14:52:33;12.77;;;9.68;;
74108;SDS011;62466;47.566;7.786;2022-08-19T14:54:58;13.77;;;10.63;;
74108;SDS011;62466;47.566;7.786;2022-08-19T14:57:24;12.27;;;9.65;;